EmailTwitter


Surface observations / Europe / LIRF (16242)

Regions: Quebec | Canada | USA | Europe | France | UK | Elsewhere
Station
Display
Info & Location for LIRF (16242) | Help decoding METAR

Weather Conditions observed on 2018/05/25 at 10:20 UTC (LIRF)

Temperature: 23.0 Celsius.

Dewpoint: 17.0 Celsius.

Relative Humidity: 69%

Humidex: 28.

Winds: West-southwest at 17 km/h or 9 knots.

Mean Sea level Pressure: 101.60 kilopascals.

Coded METAR:

LIRF 251020Z 25009KT 210V270 CAVOK 23/17 Q1016 NOSIG=